Hovedside
METAR-TAF:

METAR-TAF

Lufthavner :

San Andrés, Colombia

breddegrad: 12-35N, lengdegrad: 081-43W, høyde over havet: 1 m

Gjeldene værobservasjon

Denne rapporten ble laget for 57 minutter siden, klokken 11:00 UTC
Vind 9 kt fra Nordøst
Temperatur 27°C
Luftfuktighet 79%
Trykk 1015 hPa
Sikt 10 km eller mer
Få skyer i en høyde av 1600 ft

METAR: SKSP 261100Z 04009KT 9999 FEW016 27/23 Q1015

Tid: 06:57 (11:57 UTC)

Varsel

Denne rapporten ble laget for 1 time og 27 minutter siden, klokken 10:30 UTC
Varsel gyldig fra 26. klokken 12 UTC til 27. klokken 12 UTC
Vind 3 kt fra skiftende retning
Sikt 10 km eller mer
Få skyer i en høyde av 1800 ft
Spredte skyer i en høyde av 1000 ft
Blir
fra 26. klokken 16 UTC til 26. klokken 18 UTC
Vind 10 kt fra Nordvest
Spredte skyer i en høyde av 2000 ft
Blir
fra 27. klokken 00 UTC til 27. klokken 02 UTC
Vind 2 kt fra skiftende retning
Spredte skyer i en høyde av 1500 ft
Sannsynlighet 40% :
Midlertidig
fra 27. klokken 03 UTC til 27. klokken 06 UTC
Sikt: 3000 m
Brutte skyer i en høyde av 1000 ft
duskregn, regn, tåkebanker,

TAF: SKSP 261030Z 2612/2712 04012KT 9999 FEW018 TX31/2619Z TN25/2710Z SKBG 261030Z 2612/2712 VRB03KT 9999 SCT010 BECMG 2616/2618 32010KT SCT020 BECMG 2700/2702 VRB02KT SCT015 PROB40 TEMPO 2703/2706 DZRA 3000 BCFG BKN010 TX27/2619Z TN18/2710Z

Værobservasjoner og værvarsel for over 4000 flyplasser (METAR- og TAF-rapporter).

Tilgjengelige stasjoner er representert av de røde og gule prikkene på kartet.

Hold musepekeren over prikken for å se navnet på stasjonen.

Klikk så for å se værobservasjoner og -varsler.

For å forandre kartet kan du klikke på den grønne knappen med svart kryss for å zoome inn, på den grønne knappen med strek for å zoome ut, eller på de grønne pilene for å se tilstøtende kart.


METAR-TAF: